sensor_id;sensor_type;location;lat;lon;timestamp;pressure;altitude;pressure_sealevel;temperature;humidity
74893;BME280;63446;56.272;43.922;2022-10-31T00:02:10;98344.41;;;4.38;72.97
74893;BME280;63446;56.272;43.922;2022-10-31T00:04:37;98339.47;;;4.32;73.01
74893;BME280;63446;56.272;43.922;2022-10-31T00:07:02;98348.16;;;4.27;73.06
74893;BME280;63446;56.272;43.922;2022-10-31T00:09:29;98352.31;;;4.28;73.17
74893;BME280;63446;56.272;43.922;2022-10-31T00:11:55;98353.88;;;4.29;73.29
74893;BME280;63446;56.272;43.922;2022-10-31T00:14:21;98355.44;;;4.30;73.19
74893;BME280;63446;56.272;43.922;2022-10-31T00:16:47;98352.81;;;4.30;73.14
74893;BME280;63446;56.272;43.922;2022-10-31T00:19:12;98351.25;;;4.34;73.09
74893;BME280;63446;56.272;43.922;2022-10-31T00:21:39;98356.47;;;4.34;73.16
74893;BME280;63446;56.272;43.922;2022-10-31T00:24:05;98351.19;;;4.39;73.17
74893;BME280;63446;56.272;43.922;2022-10-31T00:26:31;98351.41;;;4.43;73.28
74893;BME280;63446;56.272;43.922;2022-10-31T00:28:58;98343.03;;;4.41;73.24
74893;BME280;63446;56.272;43.922;2022-10-31T00:31:24;98356.56;;;4.48;73.27
74893;BME280;63446;56.272;43.922;2022-10-31T00:33:50;98358.13;;;4.49;73.32
74893;BME280;63446;56.272;43.922;2022-10-31T00:36:18;98350.78;;;4.51;73.35
74893;BME280;63446;56.272;43.922;2022-10-31T00:38:45;98358.88;;;4.55;73.30
74893;BME280;63446;56.272;43.922;2022-10-31T00:41:14;98349.97;;;4.56;73.32
74893;BME280;63446;56.272;43.922;2022-10-31T00:43:41;98353.09;;;4.58;73.30
74893;BME280;63446;56.272;43.922;2022-10-31T00:46:08;98360.66;;;4.59;73.16
74893;BME280;63446;56.272;43.922;2022-10-31T00:48:34;98363.56;;;4.58;73.09
74893;BME280;63446;56.272;43.922;2022-10-31T00:51:00;98361.72;;;4.58;73.01
74893;BME280;63446;56.272;43.922;2022-10-31T00:53:27;98365.09;;;4.59;73.03
74893;BME280;63446;56.272;43.922;2022-10-31T00:55:52;98364.34;;;4.58;73.10
74893;BME280;63446;56.272;43.922;2022-10-31T00:58:18;98366.16;;;4.58;73.04
74893;BME280;63446;56.272;43.922;2022-10-31T01:00:47;98371.88;;;4.60;73.02
74893;BME280;63446;56.272;43.922;2022-10-31T01:03:26;98371.63;;;4.61;73.12
74893;BME280;63446;56.272;43.922;2022-10-31T01:06:02;98372.91;;;4.64;73.04
74893;BME280;63446;56.272;43.922;2022-10-31T01:08:31;98370.28;;;4.64;72.85
74893;BME280;63446;56.272;43.922;2022-10-31T01:11:10;98369.72;;;4.67;72.93
74893;BME280;63446;56.272;43.922;2022-10-31T01:13:38;98370.78;;;4.66;72.81
74893;BME280;63446;56.272;43.922;2022-10-31T01:16:06;98373.63;;;4.70;72.83
74893;BME280;63446;56.272;43.922;2022-10-31T01:18:33;98384.88;;;4.70;72.63
74893;BME280;63446;56.272;43.922;2022-10-31T01:21:22;98385.66;;;4.71;72.65
74893;BME280;63446;56.272;43.922;2022-10-31T01:23:49;98379.13;;;4.68;72.63
74893;BME280;63446;56.272;43.922;2022-10-31T01:26:18;98377.28;;;4.69;72.53
74893;BME280;63446;56.272;43.922;2022-10-31T01:28:46;98382.28;;;4.65;72.37
74893;BME280;63446;56.272;43.922;2022-10-31T01:31:12;98387.53;;;4.65;72.40
74893;BME280;63446;56.272;43.922;2022-10-31T01:33:38;98389.66;;;4.63;72.31
74893;BME280;63446;56.272;43.922;2022-10-31T01:36:32;98391.56;;;4.57;72.21
74893;BME280;63446;56.272;43.922;2022-10-31T01:39:01;98386.59;;;4.56;72.32
74893;BME280;63446;56.272;43.922;2022-10-31T01:41:31;98396.28;;;4.55;72.25
74893;BME280;63446;56.272;43.922;2022-10-31T01:46:37;98402.34;;;4.51;72.41
74893;BME280;63446;56.272;43.922;2022-10-31T01:49:11;98405.72;;;4.51;72.38
74893;BME280;63446;56.272;43.922;2022-10-31T01:51:48;98405.72;;;4.51;72.20
74893;BME280;63446;56.272;43.922;2022-10-31T01:54:18;98413.06;;;4.49;72.13
74893;BME280;63446;56.272;43.922;2022-10-31T01:56:49;98413.34;;;4.48;72.22
74893;BME280;63446;56.272;43.922;2022-10-31T01:59:19;98418.56;;;4.48;72.19
74893;BME280;63446;56.272;43.922;2022-10-31T02:01:46;98419.63;;;4.47;72.23
74893;BME280;63446;56.272;43.922;2022-10-31T02:04:13;98423.03;;;4.47;72.17
74893;BME280;63446;56.272;43.922;2022-10-31T02:07:02;98418.06;;;4.46;72.22
74893;BME280;63446;56.272;43.922;2022-10-31T02:09:31;98412.06;;;4.45;72.13
74893;BME280;63446;56.272;43.922;2022-10-31T02:11:59;98415.19;;;4.47;72.20
74893;BME280;63446;56.272;43.922;2022-10-31T02:14:27;98420.41;;;4.47;72.21
74893;BME280;63446;56.272;43.922;2022-10-31T02:16:54;98417.28;;;4.45;72.15
74893;BME280;63446;56.272;43.922;2022-10-31T02:28:15;98435.59;;;4.45;72.12
74893;BME280;63446;56.272;43.922;2022-10-31T02:31:27;98437.19;;;4.46;72.10
74893;BME280;63446;56.272;43.922;2022-10-31T02:34:06;98439.78;;;4.46;72.08
74893;BME280;63446;56.272;43.922;2022-10-31T02:39:27;98447.13;;;4.44;72.08
74893;BME280;63446;56.272;43.922;2022-10-31T02:44:45;98442.94;;;4.43;72.12
74893;BME280;63446;56.272;43.922;2022-10-31T02:47:17;98450.78;;;4.43;72.24
74893;BME280;63446;56.272;43.922;2022-10-31T02:52:31;98453.91;;;4.45;71.96
74893;BME280;63446;56.272;43.922;2022-10-31T02:57:49;98454.69;;;4.46;72.09
74893;BME280;63446;56.272;43.922;2022-10-31T03:00:16;98460.19;;;4.44;72.04
74893;BME280;63446;56.272;43.922;2022-10-31T03:08:13;98459.69;;;4.42;72.00
74893;BME280;63446;56.272;43.922;2022-10-31T03:13:28;98470.16;;;4.42;72.08
74893;BME280;63446;56.272;43.922;2022-10-31T03:18:55;98467.81;;;4.40;72.01
74893;BME280;63446;56.272;43.922;2022-10-31T03:21:36;98473.31;;;4.39;71.97
74893;BME280;63446;56.272;43.922;2022-10-31T03:24:06;98472.03;;;4.36;71.94
74893;BME280;63446;56.272;43.922;2022-10-31T03:26:40;98478.06;;;4.32;71.85
74893;BME280;63446;56.272;43.922;2022-10-31T03:29:10;98471.31;;;4.26;71.84
74893;BME280;63446;56.272;43.922;2022-10-31T03:31:52;98469.03;;;4.19;71.95
74893;BME280;63446;56.272;43.922;2022-10-31T03:34:22;98478.19;;;4.16;71.99
74893;BME280;63446;56.272;43.922;2022-10-31T03:36:51;98471.66;;;4.14;72.08
74893;BME280;63446;56.272;43.922;2022-10-31T03:39:20;98481.63;;;4.12;72.16
74893;BME280;63446;56.272;43.922;2022-10-31T03:41:55;98484.78;;;4.09;72.05
74893;BME280;63446;56.272;43.922;2022-10-31T03:44:26;98485.84;;;4.08;72.11
74893;BME280;63446;56.272;43.922;2022-10-31T03:46:59;98488.44;;;4.08;72.20
74893;BME280;63446;56.272;43.922;2022-10-31T03:49:25;98486.59;;;4.08;72.20
74893;BME280;63446;56.272;43.922;2022-10-31T03:52:07;98488.94;;;4.10;72.12
74893;BME280;63446;56.272;43.922;2022-10-31T03:54:45;98487.38;;;4.09;72.27
74893;BME280;63446;56.272;43.922;2022-10-31T04:00:11;98495.47;;;4.12;72.34
74893;BME280;63446;56.272;43.922;2022-10-31T04:02:51;98501.97;;;4.15;72.37
74893;BME280;63446;56.272;43.922;2022-10-31T04:05:20;98506.66;;;4.18;72.41
74893;BME280;63446;56.272;43.922;2022-10-31T04:07:49;98503.03;;;4.19;72.25
74893;BME280;63446;56.272;43.922;2022-10-31T04:10:18;98505.34;;;4.21;72.16
74893;BME280;63446;56.272;43.922;2022-10-31T04:12:49;98500.91;;;4.21;72.37
74893;BME280;63446;56.272;43.922;2022-10-31T04:15:26;98507.44;;;4.24;72.08
74893;BME280;63446;56.272;43.922;2022-10-31T04:17:55;98507.16;;;4.25;72.06
74893;BME280;63446;56.272;43.922;2022-10-31T04:20:34;98506.59;;;4.28;72.19
74893;BME280;63446;56.272;43.922;2022-10-31T04:23:01;98514.94;;;4.30;72.14
74893;BME280;63446;56.272;43.922;2022-10-31T04:25:26;98517.31;;;4.32;72.04
74893;BME280;63446;56.272;43.922;2022-10-31T04:27:53;98514.41;;;4.33;72.10
74893;BME280;63446;56.272;43.922;2022-10-31T04:30:19;98517.53;;;4.35;71.95
74893;BME280;63446;56.272;43.922;2022-10-31T04:32:45;98511.78;;;4.33;71.95
74893;BME280;63446;56.272;43.922;2022-10-31T04:35:11;98527.47;;;4.38;71.96
74893;BME280;63446;56.272;43.922;2022-10-31T04:37:37;98520.13;;;4.40;71.97
74893;BME280;63446;56.272;43.922;2022-10-31T04:40:04;98528.97;;;4.45;71.88
74893;BME280;63446;56.272;43.922;2022-10-31T04:42:56;98527.66;;;4.47;71.79
74893;BME280;63446;56.272;43.922;2022-10-31T04:45:22;98535.47;;;4.52;71.84
74893;BME280;63446;56.272;43.922;2022-10-31T04:47:50;98539.09;;;4.56;71.80
74893;BME280;63446;56.272;43.922;2022-10-31T04:50:16;98539.31;;;4.60;71.66
74893;BME280;63446;56.272;43.922;2022-10-31T04:52:44;98547.94;;;4.65;71.67
74893;BME280;63446;56.272;43.922;2022-10-31T04:55:13;98546.59;;;4.68;71.59
74893;BME280;63446;56.272;43.922;2022-10-31T04:57:58;98549.69;;;4.75;71.45
74893;BME280;63446;56.272;43.922;2022-10-31T05:00:25;98552.25;;;4.80;71.32
74893;BME280;63446;56.272;43.922;2022-10-31T05:02:55;98546.69;;;4.87;71.50
74893;BME280;63446;56.272;43.922;2022-10-31T05:05:25;98555.31;;;4.93;71.35
74893;BME280;63446;56.272;43.922;2022-10-31T05:07:52;98557.88;;;4.98;71.33
74893;BME280;63446;56.272;43.922;2022-10-31T05:10:25;98562.28;;;5.02;71.04
74893;BME280;63446;56.272;43.922;2022-10-31T05:12:55;98564.06;;;5.07;71.08
74893;BME280;63446;56.272;43.922;2022-10-31T05:15:40;98567.44;;;5.12;70.87
74893;BME280;63446;56.272;43.922;2022-10-31T05:18:25;98565.53;;;5.18;70.65
74893;BME280;63446;56.272;43.922;2022-10-31T05:21:29;98572.56;;;5.23;70.64
74893;BME280;63446;56.272;43.922;2022-10-31T05:23:59;98580.38;;;5.28;70.48
74893;BME280;63446;56.272;43.922;2022-10-31T05:26:25;98585.56;;;5.33;70.45
74893;BME280;63446;56.272;43.922;2022-10-31T05:28:54;98589.69;;;5.39;70.54
74893;BME280;63446;56.272;43.922;2022-10-31T05:31:19;98585.69;;;5.47;70.49
74893;BME280;63446;56.272;43.922;2022-10-31T05:33:48;98596.63;;;5.54;70.51
74893;BME280;63446;56.272;43.922;2022-10-31T05:36:49;98604.66;;;5.62;70.31
74893;BME280;63446;56.272;43.922;2022-10-31T05:39:16;98597.25;;;5.70;70.24
74893;BME280;63446;56.272;43.922;2022-10-31T05:41:46;98601.88;;;5.78;70.25
74893;BME280;63446;56.272;43.922;2022-10-31T05:44:21;98609.34;;;5.90;69.80
74893;BME280;63446;56.272;43.922;2022-10-31T05:47:06;98612.50;;;6.10;69.54
74893;BME280;63446;56.272;43.922;2022-10-31T05:49:50;98619.84;;;6.32;69.31
74893;BME280;63446;56.272;43.922;2022-10-31T05:52:40;98624.88;;;6.48;68.92
74893;BME280;63446;56.272;43.922;2022-10-31T05:55:16;98632.13;;;6.56;68.45
74893;BME280;63446;56.272;43.922;2022-10-31T05:57:57;98633.63;;;6.62;68.28
74893;BME280;63446;56.272;43.922;2022-10-31T06:00:24;98638.88;;;6.62;68.12
74893;BME280;63446;56.272;43.922;2022-10-31T06:02:58;98645.16;;;6.61;68.16
74893;BME280;63446;56.272;43.922;2022-10-31T06:05:33;98651.28;;;6.56;68.21
74893;BME280;63446;56.272;43.922;2022-10-31T06:08:00;98640.56;;;6.53;67.99
74893;BME280;63446;56.272;43.922;2022-10-31T06:10:26;98657.66;;;6.50;67.90
74893;BME280;63446;56.272;43.922;2022-10-31T06:12:54;98647.22;;;6.45;67.82
74893;BME280;63446;56.272;43.922;2022-10-31T06:15:35;98648.84;;;6.41;67.92
74893;BME280;63446;56.272;43.922;2022-10-31T06:18:03;98649.63;;;6.42;67.69
74893;BME280;63446;56.272;43.922;2022-10-31T06:20:34;98651.19;;;6.43;67.57
74893;BME280;63446;56.272;43.922;2022-10-31T06:23:03;98651.19;;;6.43;67.69
74893;BME280;63446;56.272;43.922;2022-10-31T06:25:32;98646.94;;;6.47;67.62
74893;BME280;63446;56.272;43.922;2022-10-31T06:27:58;98657.94;;;6.49;67.43
74893;BME280;63446;56.272;43.922;2022-10-31T06:30:32;98660.50;;;6.54;67.46
74893;BME280;63446;56.272;43.922;2022-10-31T06:33:05;98658.09;;;6.57;67.29
74893;BME280;63446;56.272;43.922;2022-10-31T06:35:33;98666.09;;;6.66;67.11
74893;BME280;63446;56.272;43.922;2022-10-31T06:37:59;98673.91;;;6.71;66.94
74893;BME280;63446;56.272;43.922;2022-10-31T06:40:35;98679.59;;;6.78;66.92
74893;BME280;63446;56.272;43.922;2022-10-31T06:43:20;98668.72;;;6.85;66.86
74893;BME280;63446;56.272;43.922;2022-10-31T06:45:47;98679.66;;;6.92;66.90
74893;BME280;63446;56.272;43.922;2022-10-31T06:48:31;98680.34;;;6.98;66.77
74893;BME280;63446;56.272;43.922;2022-10-31T06:51:17;98686.13;;;7.00;66.35
74893;BME280;63446;56.272;43.922;2022-10-31T06:53:43;98691.06;;;7.01;66.16
74893;BME280;63446;56.272;43.922;2022-10-31T06:56:11;98683.69;;;7.03;65.91
74893;BME280;63446;56.272;43.922;2022-10-31T06:58:44;98688.97;;;7.03;66.02
74893;BME280;63446;56.272;43.922;2022-10-31T07:01:12;98686.81;;;7.05;65.86
74893;BME280;63446;56.272;43.922;2022-10-31T07:03:38;98681.25;;;7.07;65.95
74893;BME280;63446;56.272;43.922;2022-10-31T07:06:05;98691.50;;;7.08;65.90
74893;BME280;63446;56.272;43.922;2022-10-31T07:08:31;98693.06;;;7.09;65.86
74893;BME280;63446;56.272;43.922;2022-10-31T07:10:57;98694.59;;;7.10;65.76
74893;BME280;63446;56.272;43.922;2022-10-31T07:13:24;98684.59;;;7.13;65.54
74893;BME280;63446;56.272;43.922;2022-10-31T07:16:00;98699.81;;;7.16;65.83
74893;BME280;63446;56.272;43.922;2022-10-31T07:18:27;98706.31;;;7.18;65.73
74893;BME280;63446;56.272;43.922;2022-10-31T07:20:53;98702.63;;;7.19;65.50
74893;BME280;63446;56.272;43.922;2022-10-31T07:23:20;98702.56;;;7.24;65.36
74893;BME280;63446;56.272;43.922;2022-10-31T07:26:05;98706.94;;;7.29;65.24
74893;BME280;63446;56.272;43.922;2022-10-31T07:28:39;98715.81;;;7.33;65.02
74893;BME280;63446;56.272;43.922;2022-10-31T07:31:05;98704.81;;;7.31;64.89
74893;BME280;63446;56.272;43.922;2022-10-31T07:33:31;98715.25;;;7.36;64.78
74893;BME280;63446;56.272;43.922;2022-10-31T07:36:17;98713.69;;;7.35;64.72
74893;BME280;63446;56.272;43.922;2022-10-31T07:38:46;98718.06;;;7.40;64.55
74893;BME280;63446;56.272;43.922;2022-10-31T07:41:12;98726.38;;;7.47;64.43
74893;BME280;63446;56.272;43.922;2022-10-31T07:43:42;98718.59;;;7.55;64.35
74893;BME280;63446;56.272;43.922;2022-10-31T07:46:11;98723.19;;;7.64;64.03
74893;BME280;63446;56.272;43.922;2022-10-31T07:48:59;98728.09;;;7.70;63.68
74893;BME280;63446;56.272;43.922;2022-10-31T07:51:44;98732.56;;;7.70;63.36
74893;BME280;63446;56.272;43.922;2022-10-31T07:54:20;98738.09;;;7.68;63.27
74893;BME280;63446;56.272;43.922;2022-10-31T07:56:47;98738.41;;;7.67;63.23
74893;BME280;63446;56.272;43.922;2022-10-31T07:59:12;98730.63;;;7.62;62.97
74893;BME280;63446;56.272;43.922;2022-10-31T08:01:39;98730.97;;;7.55;63.06
74893;BME280;63446;56.272;43.922;2022-10-31T08:04:25;98733.19;;;7.48;63.01
74893;BME280;63446;56.272;43.922;2022-10-31T08:07:21;98740.09;;;7.44;63.10
74893;BME280;63446;56.272;43.922;2022-10-31T08:09:54;98739.00;;;7.45;62.92
74893;BME280;63446;56.272;43.922;2022-10-31T08:12:24;98743.69;;;7.48;62.68
74893;BME280;63446;56.272;43.922;2022-10-31T08:14:51;98747.63;;;7.50;62.59
74893;BME280;63446;56.272;43.922;2022-10-31T08:17:18;98747.53;;;7.55;62.49
74893;BME280;63446;56.272;43.922;2022-10-31T08:19:50;98745.09;;;7.59;62.42
74893;BME280;63446;56.272;43.922;2022-10-31T08:22:18;98760.00;;;7.64;62.14
74893;BME280;63446;56.272;43.922;2022-10-31T08:24:47;98758.94;;;7.65;61.82
74893;BME280;63446;56.272;43.922;2022-10-31T08:27:14;98758.94;;;7.65;61.79
74893;BME280;63446;56.272;43.922;2022-10-31T08:29:41;98768.41;;;7.66;61.42
74893;BME280;63446;56.272;43.922;2022-10-31T08:32:07;98772.38;;;7.63;61.31
74893;BME280;63446;56.272;43.922;2022-10-31T08:34:51;98770.41;;;7.55;61.43
74893;BME280;63446;56.272;43.922;2022-10-31T08:37:30;98777.78;;;7.53;61.35
74893;BME280;63446;56.272;43.922;2022-10-31T08:39:56;98778.66;;;7.48;61.16
74893;BME280;63446;56.272;43.922;2022-10-31T08:42:22;98777.88;;;7.48;61.14
74893;BME280;63446;56.272;43.922;2022-10-31T08:44:49;98777.88;;;7.48;61.14
74893;BME280;63446;56.272;43.922;2022-10-31T08:47:14;98789.47;;;7.47;61.03
74893;BME280;63446;56.272;43.922;2022-10-31T08:49:41;98790.53;;;7.46;61.06
74893;BME280;63446;56.272;43.922;2022-10-31T08:52:07;98793.16;;;7.46;60.83
74893;BME280;63446;56.272;43.922;2022-10-31T08:54:37;98787.59;;;7.47;60.83
74893;BME280;63446;56.272;43.922;2022-10-31T08:57:21;98787.53;;;7.52;60.32
74893;BME280;63446;56.272;43.922;2022-10-31T08:59:47;98791.44;;;7.55;60.06
74893;BME280;63446;56.272;43.922;2022-10-31T09:02:13;98795.75;;;7.65;59.88
74893;BME280;63446;56.272;43.922;2022-10-31T09:04:39;98793.06;;;7.70;59.56
74893;BME280;63446;56.272;43.922;2022-10-31T09:07:05;98800.56;;;7.76;59.24
74893;BME280;63446;56.272;43.922;2022-10-31T09:09:31;98807.66;;;7.76;59.31
74893;BME280;63446;56.272;43.922;2022-10-31T09:11:57;98809.81;;;7.74;59.46
74893;BME280;63446;56.272;43.922;2022-10-31T09:14:46;98811.47;;;7.70;59.47
74893;BME280;63446;56.272;43.922;2022-10-31T09:17:36;98821.56;;;7.63;59.46
74893;BME280;63446;56.272;43.922;2022-10-31T09:20:15;98814.03;;;7.56;59.52
74893;BME280;63446;56.272;43.922;2022-10-31T09:22:41;98817.50;;;7.51;59.40
74893;BME280;63446;56.272;43.922;2022-10-31T09:25:08;98813.97;;;7.42;59.14
74893;BME280;63446;56.272;43.922;2022-10-31T09:27:37;98825.75;;;7.45;59.15
74893;BME280;63446;56.272;43.922;2022-10-31T09:30:05;98824.19;;;7.44;59.28
74893;BME280;63446;56.272;43.922;2022-10-31T09:32:32;98824.50;;;7.42;59.21
74893;BME280;63446;56.272;43.922;2022-10-31T09:34:58;98833.41;;;7.41;59.10
74893;BME280;63446;56.272;43.922;2022-10-31T09:37:24;98835.84;;;7.38;59.13
74893;BME280;63446;56.272;43.922;2022-10-31T09:39:51;98840.59;;;7.36;59.11
74893;BME280;63446;56.272;43.922;2022-10-31T09:42:37;98841.72;;;7.29;59.04
74893;BME280;63446;56.272;43.922;2022-10-31T09:47:52;98850.81;;;7.18;59.27
74893;BME280;63446;56.272;43.922;2022-10-31T09:50:57;98842.72;;;7.15;59.25
74893;BME280;63446;56.272;43.922;2022-10-31T09:56:25;98850.72;;;7.04;59.44
74893;BME280;63446;56.272;43.922;2022-10-31T09:59:00;98861.78;;;7.01;59.35
74893;BME280;63446;56.272;43.922;2022-10-31T10:01:50;98867.38;;;6.95;59.30
74893;BME280;63446;56.272;43.922;2022-10-31T10:10:28;98877.97;;;6.90;59.69
74893;BME280;63446;56.272;43.922;2022-10-31T10:21:53;98888.53;;;6.84;60.29
74893;BME280;63446;56.272;43.922;2022-10-31T10:27:27;98885.38;;;6.82;60.32
74893;BME280;63446;56.272;43.922;2022-10-31T10:32:31;98888.34;;;6.76;60.44
74893;BME280;63446;56.272;43.922;2022-10-31T10:37:58;98889.50;;;6.65;60.60
74893;BME280;63446;56.272;43.922;2022-10-31T10:40:27;98898.72;;;6.62;60.57
74893;BME280;63446;56.272;43.922;2022-10-31T10:43:01;98894.03;;;6.59;60.54
74893;BME280;63446;56.272;43.922;2022-10-31T10:45:50;98900.13;;;6.54;60.50
74893;BME280;63446;56.272;43.922;2022-10-31T10:48:50;98895.13;;;6.53;60.67
74893;BME280;63446;56.272;43.922;2022-10-31T10:51:27;98890.94;;;6.52;60.80
74893;BME280;63446;56.272;43.922;2022-10-31T10:59:33;98897.03;;;6.47;60.86
74893;BME280;63446;56.272;43.922;2022-10-31T11:01:59;98898.88;;;6.47;60.98
74893;BME280;63446;56.272;43.922;2022-10-31T11:04:45;98904.13;;;6.47;61.06
74893;BME280;63446;56.272;43.922;2022-10-31T11:07:13;98905.44;;;6.44;61.24
74893;BME280;63446;56.272;43.922;2022-10-31T11:09:39;98900.19;;;6.44;61.32
74893;BME280;63446;56.272;43.922;2022-10-31T11:12:10;98898.66;;;6.43;61.34
74893;BME280;63446;56.272;43.922;2022-10-31T11:14:48;98904.16;;;6.42;61.71
74893;BME280;63446;56.272;43.922;2022-10-31T11:17:22;98900.53;;;6.38;61.56
74893;BME280;63446;56.272;43.922;2022-10-31T11:20:00;98908.44;;;6.32;61.85
74893;BME280;63446;56.272;43.922;2022-10-31T11:22:28;98903.47;;;6.31;61.92
74893;BME280;63446;56.272;43.922;2022-10-31T11:24:54;98902.69;;;6.30;62.05
74893;BME280;63446;56.272;43.922;2022-10-31T11:27:22;98910.78;;;6.34;62.09
74893;BME280;63446;56.272;43.922;2022-10-31T11:29:49;98901.09;;;6.34;62.30
74893;BME280;63446;56.272;43.922;2022-10-31T11:32:26;98895.84;;;6.34;62.41
74893;BME280;63446;56.272;43.922;2022-10-31T11:34:54;98907.38;;;6.33;62.56
74893;BME280;63446;56.272;43.922;2022-10-31T11:37:27;98911.59;;;6.34;62.77
74893;BME280;63446;56.272;43.922;2022-10-31T11:39:56;98912.38;;;6.30;62.98
74893;BME280;63446;56.272;43.922;2022-10-31T11:42:28;98917.44;;;6.21;63.15
74893;BME280;63446;56.272;43.922;2022-10-31T11:44:56;98916.50;;;6.12;63.52
74893;BME280;63446;56.272;43.922;2022-10-31T11:47:28;98919.94;;;6.02;64.06
74893;BME280;63446;56.272;43.922;2022-10-31T11:49:56;98924.22;;;5.93;64.56
74893;BME280;63446;56.272;43.922;2022-10-31T11:52:30;98925.81;;;5.84;65.00
74893;BME280;63446;56.272;43.922;2022-10-31T11:55:00;98928.75;;;5.77;65.24
74893;BME280;63446;56.272;43.922;2022-10-31T11:57:31;98929.81;;;5.71;65.56
74893;BME280;63446;56.272;43.922;2022-10-31T12:00:04;98924.09;;;5.64;65.94
74893;BME280;63446;56.272;43.922;2022-10-31T12:02:45;98922.03;;;5.56;66.13
74893;BME280;63446;56.272;43.922;2022-10-31T12:05:24;98925.19;;;5.53;66.62
74893;BME280;63446;56.272;43.922;2022-10-31T12:07:51;98928.09;;;5.51;66.71
74893;BME280;63446;56.272;43.922;2022-10-31T12:10:19;98919.47;;;5.46;67.17
74893;BME280;63446;56.272;43.922;2022-10-31T12:12:53;98922.38;;;5.44;67.40
74893;BME280;63446;56.272;43.922;2022-10-31T12:15:32;98924.75;;;5.41;67.60
74893;BME280;63446;56.272;43.922;2022-10-31T12:40:40;98933.81;;;5.04;69.24
74893;BME280;63446;56.272;43.922;2022-10-31T12:46:25;98949.50;;;4.99;69.27
74893;BME280;63446;56.272;43.922;2022-10-31T12:57:22;98941.66;;;4.94;70.03
74893;BME280;63446;56.272;43.922;2022-10-31T12:59:49;98944.28;;;4.94;69.86
74893;BME280;63446;56.272;43.922;2022-10-31T13:02:21;98946.38;;;4.92;70.05
74893;BME280;63446;56.272;43.922;2022-10-31T13:07:37;98943.81;;;4.81;70.21
74893;BME280;63446;56.272;43.922;2022-10-31T13:10:30;98942.50;;;4.79;70.42
74893;BME280;63446;56.272;43.922;2022-10-31T13:13:06;98950.63;;;4.77;70.46
74893;BME280;63446;56.272;43.922;2022-10-31T13:15:49;98949.56;;;4.73;70.45
74893;BME280;63446;56.272;43.922;2022-10-31T13:18:32;98947.47;;;4.70;70.63
74893;BME280;63446;56.272;43.922;2022-10-31T13:21:03;98949.56;;;4.68;70.74
74893;BME280;63446;56.272;43.922;2022-10-31T13:23:35;98946.94;;;4.68;70.77
74893;BME280;63446;56.272;43.922;2022-10-31T13:26:12;98944.63;;;4.61;70.71
74893;BME280;63446;56.272;43.922;2022-10-31T13:28:57;98953.78;;;4.59;70.94
74893;BME280;63446;56.272;43.922;2022-10-31T13:31:26;98961.09;;;4.57;71.22
74893;BME280;63446;56.272;43.922;2022-10-31T13:33:58;98957.19;;;4.54;71.52
74893;BME280;63446;56.272;43.922;2022-10-31T13:41:35;98963.72;;;4.47;71.53
74893;BME280;63446;56.272;43.922;2022-10-31T13:44:20;98962.94;;;4.46;71.69
74893;BME280;63446;56.272;43.922;2022-10-31T13:46:50;98959.50;;;4.46;71.74
74893;BME280;63446;56.272;43.922;2022-10-31T13:54:48;98965.81;;;4.45;71.90
74893;BME280;63446;56.272;43.922;2022-10-31T13:59:56;98969.47;;;4.49;72.02
74893;BME280;63446;56.272;43.922;2022-10-31T14:02:26;98964.78;;;4.51;72.15
74893;BME280;63446;56.272;43.922;2022-10-31T14:05:22;98976.78;;;4.52;72.27
74893;BME280;63446;56.272;43.922;2022-10-31T14:07:49;98977.84;;;4.56;72.10
74893;BME280;63446;56.272;43.922;2022-10-31T14:10:21;98984.63;;;4.57;72.14
74893;BME280;63446;56.272;43.922;2022-10-31T14:12:48;98985.97;;;4.54;72.11
74893;BME280;63446;56.272;43.922;2022-10-31T14:17:51;98987.25;;;4.52;72.06
74893;BME280;63446;56.272;43.922;2022-10-31T14:22:45;98986.47;;;4.51;72.19
74893;BME280;63446;56.272;43.922;2022-10-31T14:27:54;98993.81;;;4.54;72.13
74893;BME280;63446;56.272;43.922;2022-10-31T14:30:23;98990.41;;;4.54;72.12
74893;BME280;63446;56.272;43.922;2022-10-31T14:32:56;98988.81;;;4.53;72.29
74893;BME280;63446;56.272;43.922;2022-10-31T14:35:27;98991.97;;;4.55;72.30
74893;BME280;63446;56.272;43.922;2022-10-31T14:40:35;98990.41;;;4.54;72.24
74893;BME280;63446;56.272;43.922;2022-10-31T14:43:50;98988.56;;;4.54;72.29
74893;BME280;63446;56.272;43.922;2022-10-31T14:51:52;99006.38;;;4.57;72.13
74893;BME280;63446;56.272;43.922;2022-10-31T14:54:31;98995.63;;;4.59;72.18
74893;BME280;63446;56.272;43.922;2022-10-31T14:57:07;98999.03;;;4.59;72.15
74893;BME280;63446;56.272;43.922;2022-10-31T14:59:43;99005.03;;;4.60;72.15
74893;BME280;63446;56.272;43.922;2022-10-31T15:02:17;98996.94;;;4.61;72.05
74893;BME280;63446;56.272;43.922;2022-10-31T15:04:45;99001.91;;;4.63;72.07
74893;BME280;63446;56.272;43.922;2022-10-31T15:07:16;99002.41;;;4.65;72.07
74893;BME280;63446;56.272;43.922;2022-10-31T15:09:43;98991.16;;;4.64;72.04
74893;BME280;63446;56.272;43.922;2022-10-31T15:14:50;98996.94;;;4.67;72.02
74893;BME280;63446;56.272;43.922;2022-10-31T15:17:17;99009.75;;;4.68;72.10
74893;BME280;63446;56.272;43.922;2022-10-31T15:19:43;99010.28;;;4.70;71.99
74893;BME280;63446;56.272;43.922;2022-10-31T15:22:17;99012.91;;;4.70;71.91
74893;BME280;63446;56.272;43.922;2022-10-31T15:24:45;99010.81;;;4.67;71.81
74893;BME280;63446;56.272;43.922;2022-10-31T15:27:14;99015.50;;;4.65;71.85
74893;BME280;63446;56.272;43.922;2022-10-31T15:29:54;99016.81;;;4.62;71.83
74893;BME280;63446;56.272;43.922;2022-10-31T15:32:27;99022.84;;;4.63;71.84
74893;BME280;63446;56.272;43.922;2022-10-31T15:34:55;99022.31;;;4.61;71.85
74893;BME280;63446;56.272;43.922;2022-10-31T15:37:24;99020.22;;;4.63;71.85
74893;BME280;63446;56.272;43.922;2022-10-31T15:39:51;99024.41;;;4.64;72.03
74893;BME280;63446;56.272;43.922;2022-10-31T15:42:20;99020.72;;;4.65;72.04
74893;BME280;63446;56.272;43.922;2022-10-31T15:47:37;99023.34;;;4.65;71.99
74893;BME280;63446;56.272;43.922;2022-10-31T15:50:05;99030.97;;;4.67;72.00